createdAt,value
2022-12-18T00:01:22.855Z,130.20
2022-12-18T00:03:50.518Z,130.90
2022-12-18T00:06:18.223Z,142.30
2022-12-18T00:08:45.884Z,161.60
2022-12-18T00:11:16.888Z,132.80
2022-12-18T00:13:45.100Z,128.70
2022-12-18T00:16:14.945Z,92.10
2022-12-18T00:18:42.497Z,84.00
2022-12-18T00:21:11.150Z,136.00
2022-12-18T00:23:39.727Z,114.60
2022-12-18T00:26:10.995Z,130.60
2022-12-18T00:28:37.610Z,108.40
2022-12-18T00:31:11.254Z,122.80
2022-12-18T00:33:39.428Z,101.80
2022-12-18T00:36:21.119Z,81.80
2022-12-18T00:38:48.865Z,71.50
2022-12-18T00:41:38.895Z,94.40
2022-12-18T00:44:08.324Z,105.70
2022-12-18T00:46:35.061Z,92.50
2022-12-18T00:49:02.010Z,88.10
2022-12-18T00:51:28.757Z,75.20
2022-12-18T00:53:55.599Z,70.20
2022-12-18T00:56:23.350Z,72.60
2022-12-18T00:58:50.195Z,64.90
2022-12-18T01:01:18.172Z,52.30
2022-12-18T01:03:47.055Z,52.90
2022-12-18T01:06:15.340Z,55.40
2022-12-18T01:08:42.477Z,67.10
2022-12-18T01:11:18.228Z,71.90
2022-12-18T01:13:45.273Z,73.80
2022-12-18T01:16:13.648Z,70.60
2022-12-18T01:18:40.598Z,60.20
2022-12-18T01:21:12.859Z,63.30
2022-12-18T01:23:40.117Z,76.70
2022-12-18T01:26:17.707Z,73.90
2022-12-18T01:28:44.863Z,67.90
2022-12-18T01:31:14.172Z,62.80
2022-12-18T01:33:41.567Z,50.20
2022-12-18T01:36:14.515Z,50.20
2022-12-18T01:38:41.398Z,55.90
2022-12-18T01:41:09.442Z,47.60
2022-12-18T01:44:25.197Z,52.00
2022-12-18T01:46:53.235Z,55.40
2022-12-18T01:49:19.904Z,64.60
2022-12-18T01:51:46.496Z,57.70
2022-12-18T01:54:13.177Z,57.80
2022-12-18T01:56:39.838Z,51.50
2022-12-18T01:59:10.470Z,53.40
2022-12-18T02:01:38.419Z,55.30
2022-12-18T02:04:34.822Z,68.30
2022-12-18T02:07:14.539Z,63.50
2022-12-18T02:09:51.467Z,56.50
2022-12-18T02:12:22.347Z,54.70
2022-12-18T02:15:02.861Z,57.50
2022-12-18T02:17:55.230Z,52.60
2022-12-18T02:20:50.294Z,51.80
2022-12-18T02:23:35.364Z,56.90
2022-12-18T02:26:14.553Z,55.90
2022-12-18T02:28:52.471Z,52.50
2022-12-18T02:31:27.257Z,47.70
2022-12-18T02:34:00.642Z,54.90
2022-12-18T02:36:29.554Z,52.10
2022-12-18T02:38:59.442Z,60.20
2022-12-18T02:41:26.772Z,63.70
2022-12-18T02:43:58.535Z,58.80
2022-12-18T02:46:41.524Z,59.10
2022-12-18T02:49:30.116Z,95.70
2022-12-18T02:52:13.624Z,98.90
2022-12-18T02:55:08.360Z,86.50
2022-12-18T02:57:46.689Z,68.30
2022-12-18T03:00:18.949Z,74.00
2022-12-18T03:02:54.324Z,84.60
2022-12-18T03:05:32.163Z,77.20
2022-12-18T03:08:23.583Z,83.90
2022-12-18T03:11:01.870Z,72.30
2022-12-18T03:13:41.528Z,66.80
2022-12-18T03:16:12.722Z,69.20
2022-12-18T03:18:48.122Z,69.90
2022-12-18T03:21:17.830Z,88.00
2022-12-18T03:23:49.904Z,79.40
2022-12-18T03:26:21.111Z,88.60
2022-12-18T03:29:07.846Z,60.50
2022-12-18T03:31:40.527Z,85.90
2022-12-18T03:34:14.973Z,77.20
2022-12-18T03:36:44.296Z,59.10
2022-12-18T03:39:11.718Z,69.60
2022-12-18T03:41:51.931Z,71.40
2022-12-18T03:44:40.520Z,82.40
2022-12-18T03:47:39.662Z,74.50
2022-12-18T03:50:21.231Z,62.40
2022-12-18T03:52:56.671Z,67.80
2022-12-18T03:55:25.671Z,79.50
2022-12-18T03:57:59.734Z,89.20
2022-12-18T04:00:30.978Z,66.50
2022-12-18T04:03:05.295Z,53.50
2022-12-18T04:05:38.023Z,59.10
2022-12-18T04:08:06.420Z,68.30
2022-12-18T04:10:36.183Z,63.20
2022-12-18T04:13:03.118Z,56.20
2022-12-18T04:15:30.119Z,55.70
2022-12-18T04:17:58.362Z,57.90
2022-12-18T04:20:25.654Z,56.10
2022-12-18T04:22:53.546Z,58.30
2022-12-18T04:25:20.386Z,54.10
2022-12-18T04:28:16.107Z,62.60
2022-12-18T04:30:43.218Z,61.40
2022-12-18T04:33:11.594Z,56.10
2022-12-18T04:35:42.144Z,50.80
2022-12-18T04:38:09.207Z,48.90
2022-12-18T04:40:37.261Z,46.70
2022-12-18T04:43:05.908Z,42.50
2022-12-18T04:45:32.992Z,41.20
2022-12-18T04:48:00.611Z,39.80
2022-12-18T04:50:28.026Z,40.50
2022-12-18T04:52:55.481Z,42.50
2022-12-18T04:55:22.223Z,42.80
2022-12-18T04:57:48.856Z,48.40
2022-12-18T05:00:15.930Z,49.50
2022-12-18T05:02:42.972Z,49.30
2022-12-18T05:05:10.316Z,47.40
2022-12-18T05:07:37.248Z,49.60
2022-12-18T05:10:04.761Z,47.30
2022-12-18T05:12:32.675Z,47.00
2022-12-18T05:14:59.306Z,49.80
2022-12-18T05:17:26.148Z,48.50
2022-12-18T05:19:52.890Z,49.90
2022-12-18T05:22:19.525Z,46.80
2022-12-18T05:24:46.160Z,46.20
2022-12-18T05:27:12.800Z,48.60
2022-12-18T05:29:39.435Z,47.80
2022-12-18T05:32:06.033Z,51.70
2022-12-18T05:34:33.942Z,51.50
2022-12-18T05:37:00.571Z,53.40
2022-12-18T05:39:27.296Z,49.90
2022-12-18T05:41:53.948Z,47.80
2022-12-18T05:44:20.586Z,45.40
2022-12-18T05:46:47.199Z,43.50
2022-12-18T05:49:13.860Z,42.60
2022-12-18T05:51:40.496Z,43.20
2022-12-18T05:54:08.110Z,42.70
2022-12-18T05:56:34.895Z,40.70
2022-12-18T05:59:01.738Z,40.30
2022-12-18T06:01:28.959Z,44.40
2022-12-18T06:03:56.056Z,40.40
2022-12-18T06:06:25.847Z,46.10
2022-12-18T06:08:53.712Z,44.80
2022-12-18T06:11:23.428Z,45.20
2022-12-18T06:13:57.907Z,43.40
2022-12-18T06:16:26.954Z,40.90
2022-12-18T06:18:56.575Z,45.30
2022-12-18T06:21:23.171Z,43.60
2022-12-18T06:23:49.923Z,43.30
2022-12-18T06:26:16.556Z,41.80
2022-12-18T06:28:43.211Z,44.10
2022-12-18T06:31:10.300Z,43.00
2022-12-18T06:33:38.284Z,40.70
2022-12-18T06:36:11.864Z,42.20
2022-12-18T06:38:41.301Z,45.00
2022-12-18T06:41:10.453Z,44.60
2022-12-18T06:43:37.587Z,46.20
2022-12-18T06:46:05.569Z,46.20
2022-12-18T06:48:32.550Z,46.30
2022-12-18T06:50:59.920Z,51.10
2022-12-18T06:53:26.658Z,48.90
2022-12-18T06:56:05.077Z,50.10
2022-12-18T06:58:34.596Z,50.00
2022-12-18T07:01:02.671Z,59.20
2022-12-18T07:03:29.726Z,62.70
2022-12-18T07:05:56.977Z,63.60
2022-12-18T07:08:23.702Z,60.10
2022-12-18T07:10:54.426Z,56.00
2022-12-18T07:13:23.615Z,55.90
2022-12-18T07:15:50.359Z,49.40
2022-12-18T07:18:16.994Z,49.00
2022-12-18T07:20:44.570Z,50.50
2022-12-18T07:23:12.517Z,50.00
2022-12-18T07:25:39.970Z,49.80
2022-12-18T07:28:06.601Z,46.40
2022-12-18T07:30:33.369Z,51.30
2022-12-18T07:33:00.088Z,54.80
2022-12-18T07:35:26.726Z,50.80
2022-12-18T07:37:53.462Z,54.50
2022-12-18T07:40:20.138Z,58.60
2022-12-18T07:42:46.942Z,77.60
2022-12-18T07:45:13.681Z,85.50
2022-12-18T07:47:41.753Z,73.90
2022-12-18T07:50:08.726Z,66.70
2022-12-18T07:52:35.435Z,77.60
2022-12-18T07:55:02.788Z,78.20
2022-12-18T08:00:16.702Z,87.00
2022-12-18T08:02:43.701Z,82.10
2022-12-18T08:05:10.535Z,79.70
2022-12-18T08:07:37.172Z,80.80
2022-12-18T08:10:04.625Z,74.10
2022-12-18T08:12:33.005Z,76.80
2022-12-18T08:14:59.639Z,77.40
2022-12-18T08:17:26.410Z,71.10
2022-12-18T08:19:53.237Z,68.40
2022-12-18T08:22:19.958Z,64.50
2022-12-18T08:24:46.597Z,72.20
2022-12-18T08:27:28.980Z,64.00
2022-12-18T08:29:57.495Z,84.90
2022-12-18T08:32:25.755Z,103.10
2022-12-18T08:34:52.805Z,83.30
2022-12-18T08:37:19.467Z,70.40
2022-12-18T08:39:46.182Z,76.50
2022-12-18T08:42:31.409Z,81.70
2022-12-18T08:45:01.573Z,102.60
2022-12-18T08:47:28.319Z,77.60
2022-12-18T08:49:55.357Z,63.70
2022-12-18T08:52:22.207Z,68.70
2022-12-18T08:54:48.944Z,64.80
2022-12-18T08:57:15.683Z,65.00
2022-12-18T08:59:42.522Z,62.70
2022-12-18T09:02:11.954Z,59.20
2022-12-18T09:04:40.307Z,58.80
2022-12-18T09:07:06.950Z,54.30
2022-12-18T09:09:33.674Z,54.50
2022-12-18T09:12:00.319Z,59.80
2022-12-18T09:14:27.564Z,57.70
2022-12-18T09:16:54.230Z,55.50
2022-12-18T09:19:21.156Z,54.70
2022-12-18T09:21:48.435Z,53.40
2022-12-18T09:24:16.279Z,52.70
2022-12-18T09:26:43.359Z,48.60
2022-12-18T09:29:10.869Z,51.40
2022-12-18T09:31:40.064Z,52.60
2022-12-18T09:34:07.357Z,53.70
2022-12-18T09:36:33.948Z,56.90
2022-12-18T09:39:04.982Z,57.00
2022-12-18T09:41:54.315Z,64.10
2022-12-18T09:44:30.526Z,50.00
2022-12-18T09:47:15.898Z,48.60
2022-12-18T09:49:45.809Z,52.20
2022-12-18T09:52:22.275Z,49.90
2022-12-18T09:55:11.811Z,53.20
2022-12-18T09:57:45.860Z,52.70
2022-12-18T10:00:18.949Z,49.40
2022-12-18T10:02:46.594Z,48.90
2022-12-18T10:05:42.536Z,47.90
2022-12-18T10:08:40.692Z,48.10
2022-12-18T10:11:23.733Z,47.50
2022-12-18T10:14:06.151Z,44.50
2022-12-18T10:17:21.013Z,54.30
2022-12-18T10:20:10.155Z,52.60
2022-12-18T10:22:43.767Z,47.00
2022-12-18T10:25:19.326Z,48.70
2022-12-18T10:27:46.051Z,43.10
2022-12-18T10:30:15.441Z,44.90
2022-12-18T10:32:43.217Z,45.70
2022-12-18T10:35:21.014Z,45.90
2022-12-18T10:38:22.263Z,47.90
2022-12-18T10:41:04.035Z,51.20
2022-12-18T10:43:31.848Z,51.70
2022-12-18T10:45:58.429Z,57.80
2022-12-18T10:48:25.266Z,59.90
2022-12-18T10:53:42.178Z,59.10
2022-12-18T10:56:09.859Z,58.40
2022-12-18T10:58:39.076Z,47.50
2022-12-18T11:01:12.188Z,48.60
2022-12-18T11:03:44.967Z,46.10
2022-12-18T11:06:14.534Z,46.70
2022-12-18T11:08:44.362Z,45.80
2022-12-18T11:11:23.487Z,46.50
2022-12-18T11:14:18.091Z,43.80
2022-12-18T11:17:23.673Z,45.40
2022-12-18T11:19:38.093Z,47.10
2022-12-18T11:22:19.270Z,46.90
2022-12-18T11:25:29.548Z,60.50
2022-12-18T11:27:47.812Z,63.90
2022-12-18T11:30:20.751Z,65.80
2022-12-18T11:32:54.664Z,57.40
2022-12-18T11:35:42.797Z,62.60
2022-12-18T11:38:19.065Z,53.60
2022-12-18T11:40:52.103Z,49.60
2022-12-18T11:43:34.296Z,49.80
2022-12-18T11:46:19.506Z,47.80
2022-12-18T11:48:54.639Z,43.60
2022-12-18T11:51:32.768Z,45.70
2022-12-18T11:54:01.908Z,49.40
2022-12-18T11:56:39.790Z,47.60
2022-12-18T11:59:23.702Z,47.60
2022-12-18T12:02:25.464Z,49.60
2022-12-18T12:05:11.147Z,47.80
2022-12-18T12:07:55.696Z,46.00
2022-12-18T12:10:31.454Z,50.70
2022-12-18T12:13:49.214Z,49.90
2022-12-18T12:16:30.199Z,48.30
2022-12-18T12:19:11.029Z,49.00
2022-12-18T12:21:54.045Z,48.00
2022-12-18T12:24:37.636Z,44.50
2022-12-18T12:27:20.762Z,44.60
2022-12-18T12:30:08.661Z,45.90
2022-12-18T12:32:49.564Z,45.40
2022-12-18T12:35:52.613Z,43.70
2022-12-18T12:38:26.135Z,45.20
2022-12-18T12:41:35.765Z,51.70
2022-12-18T12:44:08.466Z,51.40
2022-12-18T12:46:41.777Z,48.20
2022-12-18T12:49:14.754Z,46.80
2022-12-18T12:51:46.257Z,44.00
2022-12-18T12:54:22.615Z,47.70
2022-12-18T12:56:54.936Z,48.10
2022-12-18T12:59:54.333Z,46.40
2022-12-18T13:02:23.960Z,49.20
2022-12-18T13:05:01.435Z,48.40
2022-12-18T13:08:07.033Z,48.90
2022-12-18T13:10:40.084Z,43.80
2022-12-18T13:13:16.563Z,46.90
2022-12-18T13:15:48.915Z,47.00
2022-12-18T13:18:20.490Z,47.20
2022-12-18T13:21:02.898Z,51.80
2022-12-18T13:23:33.867Z,51.10
2022-12-18T13:26:26.323Z,54.90
2022-12-18T13:28:57.994Z,57.50
2022-12-18T13:31:40.068Z,60.90
2022-12-18T13:34:28.011Z,62.50
2022-12-18T13:37:17.088Z,59.90
2022-12-18T13:39:44.374Z,59.90
2022-12-18T13:42:31.278Z,58.00
2022-12-18T13:44:58.885Z,59.50
2022-12-18T13:47:38.392Z,54.40
2022-12-18T13:50:36.085Z,49.00
2022-12-18T13:53:05.840Z,51.10
2022-12-18T13:55:33.151Z,47.20
2022-12-18T13:58:06.590Z,47.20
2022-12-18T14:00:34.514Z,47.60
2022-12-18T14:03:01.417Z,45.90
2022-12-18T14:05:32.195Z,48.50
2022-12-18T14:08:03.661Z,50.10
2022-12-18T14:10:47.829Z,48.50
2022-12-18T14:13:41.567Z,53.80
2022-12-18T14:16:13.737Z,55.60
2022-12-18T14:19:17.326Z,54.20
2022-12-18T14:21:49.639Z,69.20
2022-12-18T14:24:22.076Z,72.40
2022-12-18T14:26:50.774Z,65.50
2022-12-18T14:29:28.982Z,63.20
2022-12-18T14:32:19.674Z,63.50
2022-12-18T14:34:54.083Z,66.90
2022-12-18T14:37:24.040Z,69.30
2022-12-18T14:39:55.147Z,63.40
2022-12-18T14:42:21.863Z,69.70
2022-12-18T14:45:12.906Z,68.20
2022-12-18T14:47:35.294Z,73.60
2022-12-18T14:50:02.072Z,79.70
2022-12-18T14:52:32.284Z,84.80
2022-12-18T14:54:58.922Z,98.80
2022-12-18T14:57:34.412Z,117.70
2022-12-18T15:00:27.526Z,102.30
2022-12-18T15:02:56.960Z,101.10
2022-12-18T15:05:30.202Z,91.50
2022-12-18T15:07:59.571Z,95.90
2022-12-18T15:10:27.499Z,118.90
2022-12-18T15:12:57.401Z,132.50
2022-12-18T15:15:33.416Z,111.90
2022-12-18T15:18:01.163Z,91.00
2022-12-18T15:20:28.575Z,80.50
2022-12-18T15:22:55.211Z,92.00
2022-12-18T15:25:34.648Z,93.00
2022-12-18T15:28:01.269Z,74.50
2022-12-18T15:30:28.026Z,77.10
2022-12-18T15:33:25.278Z,70.20
2022-12-18T15:35:59.960Z,69.90
2022-12-18T15:38:27.280Z,68.20
2022-12-18T15:40:54.816Z,68.10
2022-12-18T15:43:35.171Z,65.80
2022-12-18T15:46:06.401Z,66.70
2022-12-18T15:48:41.060Z,66.30
2022-12-18T15:51:35.902Z,65.00
2022-12-18T15:54:05.551Z,68.20
2022-12-18T15:56:51.172Z,67.80
2022-12-18T15:59:20.018Z,63.30
2022-12-18T16:01:49.346Z,66.90
2022-12-18T16:04:21.076Z,69.30
2022-12-18T16:07:13.803Z,73.50
2022-12-18T16:09:35.729Z,70.90
2022-12-18T16:12:03.206Z,70.80
2022-12-18T16:14:31.229Z,65.50
2022-12-18T16:17:03.447Z,65.30
2022-12-18T16:19:30.709Z,68.10
2022-12-18T16:21:59.033Z,63.30
2022-12-18T16:24:28.983Z,62.60
2022-12-18T16:26:59.273Z,67.30
2022-12-18T16:29:28.414Z,66.70
2022-12-18T16:31:57.395Z,69.60
2022-12-18T16:34:28.678Z,71.50
2022-12-18T16:37:05.508Z,72.50
2022-12-18T16:39:37.382Z,72.70
2022-12-18T16:42:16.715Z,70.60
2022-12-18T16:44:44.001Z,76.30
2022-12-18T16:47:11.149Z,74.80
2022-12-18T16:49:41.233Z,75.00
2022-12-18T16:52:08.108Z,77.40
2022-12-18T16:54:36.038Z,70.20
2022-12-18T16:57:04.767Z,70.10
2022-12-18T16:59:36.284Z,73.90
2022-12-18T17:02:03.119Z,82.10
2022-12-18T17:04:30.063Z,77.60
2022-12-18T17:06:56.801Z,77.80
2022-12-18T17:09:24.798Z,79.80
2022-12-18T17:11:53.036Z,78.40
2022-12-18T17:14:22.650Z,80.50
2022-12-18T17:17:07.362Z,78.90
2022-12-18T17:19:36.408Z,81.30
2022-12-18T17:22:04.245Z,79.70
2022-12-18T17:24:34.767Z,89.50
2022-12-18T17:27:03.507Z,87.70
2022-12-18T17:29:30.368Z,82.50
2022-12-18T17:31:57.271Z,79.70
2022-12-18T17:34:25.441Z,79.40
2022-12-18T17:36:52.127Z,80.30
2022-12-18T17:39:20.417Z,78.10
2022-12-18T17:41:48.740Z,79.90
2022-12-18T17:44:16.498Z,74.80
2022-12-18T17:46:43.540Z,72.80
2022-12-18T17:49:11.191Z,79.70
2022-12-18T17:51:39.158Z,76.20
2022-12-18T17:54:06.112Z,79.60
2022-12-18T17:56:32.925Z,86.90
2022-12-18T17:58:59.601Z,88.50
2022-12-18T18:01:27.466Z,90.40
2022-12-18T18:03:57.422Z,83.10
2022-12-18T18:06:24.218Z,78.30
2022-12-18T18:08:53.001Z,79.90
2022-12-18T18:11:40.526Z,79.10
2022-12-18T18:14:13.425Z,80.70
2022-12-18T18:16:42.918Z,85.10
2022-12-18T18:19:12.621Z,89.70
2022-12-18T18:21:41.512Z,86.80
2022-12-18T18:24:10.913Z,89.20
2022-12-18T18:26:38.034Z,90.20
2022-12-18T18:29:06.538Z,90.60
2022-12-18T18:31:34.484Z,96.70
2022-12-18T18:34:06.766Z,102.30
2022-12-18T18:36:34.852Z,122.30
2022-12-18T18:39:02.548Z,124.60
2022-12-18T18:41:30.069Z,114.80
2022-12-18T18:43:57.969Z,106.70
2022-12-18T18:46:25.182Z,92.80
2022-12-18T18:48:51.948Z,91.30
2022-12-18T18:51:21.209Z,86.50
2022-12-18T18:53:50.736Z,92.30
2022-12-18T18:59:07.447Z,87.90
2022-12-18T19:01:34.404Z,85.30
2022-12-18T19:04:01.136Z,81.20
2022-12-18T19:06:28.784Z,85.50
2022-12-18T19:08:58.278Z,96.90
2022-12-18T19:11:45.495Z,95.50
2022-12-18T19:14:14.191Z,95.80
2022-12-18T19:16:42.118Z,92.80
2022-12-18T19:19:09.145Z,90.30
2022-12-18T19:21:37.721Z,88.80
2022-12-18T19:24:05.177Z,83.60
2022-12-18T19:26:31.883Z,86.00
2022-12-18T19:29:07.550Z,72.20
2022-12-18T19:31:36.737Z,70.50
2022-12-18T19:34:06.241Z,70.60
2022-12-18T19:36:34.727Z,73.70
2022-12-18T19:39:01.867Z,69.40
2022-12-18T19:41:31.382Z,70.40
2022-12-18T19:44:07.859Z,65.70
2022-12-18T19:46:35.475Z,66.60
2022-12-18T19:49:02.413Z,69.30
2022-12-18T19:51:30.768Z,69.10
2022-12-18T19:54:00.558Z,67.40
2022-12-18T19:56:33.118Z,65.90
2022-12-18T19:59:00.878Z,63.80
2022-12-18T20:01:29.401Z,66.80
2022-12-18T20:03:57.612Z,71.90
2022-12-18T20:06:55.019Z,69.40
2022-12-18T20:09:21.932Z,67.60
2022-12-18T20:11:49.812Z,68.40
2022-12-18T20:14:19.680Z,70.60
2022-12-18T20:16:51.742Z,78.90
2022-12-18T20:19:19.274Z,74.80
2022-12-18T20:21:46.274Z,74.80
2022-12-18T20:24:12.978Z,74.00
2022-12-18T20:26:40.184Z,74.60
2022-12-18T20:29:06.905Z,75.40
2022-12-18T20:31:33.700Z,75.60
2022-12-18T20:34:01.699Z,77.90
2022-12-18T20:36:30.718Z,77.70
2022-12-18T20:39:01.800Z,76.60
2022-12-18T20:41:36.447Z,74.60
2022-12-18T20:44:22.334Z,70.90
2022-12-18T20:46:56.541Z,73.50
2022-12-18T20:49:25.183Z,73.90
2022-12-18T20:51:57.003Z,75.90
2022-12-18T20:54:26.323Z,77.10
2022-12-18T20:56:53.835Z,72.40
2022-12-18T20:59:22.551Z,72.80
2022-12-18T21:01:49.663Z,70.50
2022-12-18T21:04:19.593Z,69.50
2022-12-18T21:06:52.411Z,69.10
2022-12-18T21:09:21.289Z,72.60
2022-12-18T21:12:06.871Z,71.80
2022-12-18T21:14:33.869Z,68.10
2022-12-18T21:17:01.415Z,65.80
2022-12-18T21:19:28.824Z,69.60
2022-12-18T21:21:57.032Z,68.80
2022-12-18T21:24:24.991Z,69.80
2022-12-18T21:26:52.264Z,68.60
2022-12-18T21:29:22.745Z,68.40
2022-12-18T21:31:50.829Z,64.70
2022-12-18T21:34:20.282Z,65.40
2022-12-18T21:36:47.734Z,71.00
2022-12-18T21:39:15.313Z,69.50
2022-12-18T21:42:01.125Z,66.50
2022-12-18T21:44:28.272Z,67.20
2022-12-18T21:47:00.592Z,64.20
2022-12-18T21:49:33.116Z,64.80
2022-12-18T21:52:01.122Z,67.00
2022-12-18T21:54:29.091Z,67.20
2022-12-18T21:57:01.848Z,73.10
2022-12-18T21:59:40.297Z,95.40
2022-12-18T22:02:20.302Z,71.30
2022-12-18T22:04:47.741Z,77.60
2022-12-18T22:07:16.127Z,93.70
2022-12-18T22:09:42.783Z,88.90
2022-12-18T22:12:12.783Z,77.90
2022-12-18T22:14:39.417Z,75.30
2022-12-18T22:17:06.180Z,74.30
2022-12-18T22:19:38.101Z,77.10
2022-12-18T22:22:09.466Z,98.30
2022-12-18T22:24:36.134Z,92.10
2022-12-18T22:27:02.843Z,91.30
2022-12-18T22:29:48.152Z,77.30
2022-12-18T22:32:16.455Z,72.50
2022-12-18T22:34:43.746Z,73.30
2022-12-18T22:37:11.816Z,74.10
2022-12-18T22:39:38.736Z,74.70
2022-12-18T22:42:06.012Z,76.50
2022-12-18T22:44:32.668Z,77.20
2022-12-18T22:47:05.766Z,78.00
2022-12-18T22:49:34.719Z,79.80
2022-12-18T22:52:03.638Z,82.30
2022-12-18T22:54:30.669Z,71.60
2022-12-18T22:56:57.276Z,74.40
2022-12-18T22:59:24.201Z,75.50
2022-12-18T23:01:58.426Z,73.80
2022-12-18T23:04:35.957Z,78.30
2022-12-18T23:07:04.921Z,72.80
2022-12-18T23:09:32.732Z,70.00
2022-12-18T23:12:00.169Z,67.30
2022-12-18T23:14:28.229Z,70.50
2022-12-18T23:16:54.969Z,68.40
2022-12-18T23:19:23.598Z,72.80
2022-12-18T23:21:51.323Z,68.00
2022-12-18T23:24:17.975Z,70.80
2022-12-18T23:26:44.691Z,66.20
2022-12-18T23:29:11.328Z,70.60
2022-12-18T23:31:39.553Z,66.80
2022-12-18T23:34:07.191Z,69.40
2022-12-18T23:36:45.360Z,67.50
2022-12-18T23:39:29.866Z,61.40
2022-12-18T23:41:57.885Z,64.50
2022-12-18T23:44:24.945Z,63.70
2022-12-18T23:46:51.650Z,61.80
2022-12-18T23:49:18.322Z,60.20
2022-12-18T23:51:44.913Z,61.60
2022-12-18T23:54:11.592Z,60.40
2022-12-18T23:56:38.259Z,61.60
2022-12-18T23:59:04.869Z,62.10
